createdAt,value
2019-02-25T00:00:11.355Z,11.80
2019-02-25T00:02:39.195Z,11.80
2019-02-25T00:05:07.311Z,11.70
2019-02-25T00:07:34.649Z,11.70
2019-02-25T00:10:02.291Z,11.50
2019-02-25T00:12:30.196Z,11.70
2019-02-25T00:14:59.004Z,11.70
2019-02-25T00:17:26.688Z,11.70
2019-02-25T00:19:54.527Z,11.70
2019-02-25T00:22:22.437Z,11.60
2019-02-25T00:24:50.529Z,11.60
2019-02-25T00:27:18.875Z,11.60
2019-02-25T00:29:46.766Z,11.60
2019-02-25T00:32:14.513Z,11.60
2019-02-25T00:34:42.559Z,11.60
2019-02-25T00:37:10.107Z,11.60
2019-02-25T00:39:38.118Z,11.60
2019-02-25T00:42:24.036Z,11.60
2019-02-25T00:45:11.060Z,11.50
2019-02-25T00:47:38.699Z,11.90
2019-02-25T00:50:08.766Z,11.60
2019-02-25T00:52:36.139Z,11.50
2019-02-25T00:55:07.399Z,11.50
2019-02-25T00:57:35.125Z,11.50
2019-02-25T01:00:04.718Z,11.50
2019-02-25T01:02:32.652Z,11.50
2019-02-25T01:05:00.458Z,11.50
2019-02-25T01:07:28.257Z,11.50
2019-02-25T01:09:56.210Z,11.50
2019-02-25T01:12:23.640Z,11.50
2019-02-25T01:14:51.442Z,11.50
2019-02-25T01:17:19.201Z,11.50
2019-02-25T01:19:49.915Z,11.50
2019-02-25T01:22:17.705Z,11.50
2019-02-25T01:24:45.179Z,11.50
2019-02-25T01:27:12.963Z,11.50
2019-02-25T01:29:40.603Z,11.50
2019-02-25T01:32:08.017Z,11.50
2019-02-25T01:34:36.011Z,11.50
2019-02-25T01:37:03.724Z,11.50
2019-02-25T01:39:31.759Z,11.50
2019-02-25T01:41:59.826Z,11.50
2019-02-25T01:44:27.421Z,11.50
2019-02-25T01:46:55.456Z,11.50
2019-02-25T01:49:22.913Z,11.50
2019-02-25T01:51:50.751Z,11.50
2019-02-25T01:54:18.277Z,11.40
2019-02-25T01:56:48.447Z,11.40
2019-02-25T01:59:16.070Z,11.40
2019-02-25T02:01:43.926Z,11.40
2019-02-25T02:04:12.414Z,11.30
2019-02-25T02:06:40.055Z,11.30
2019-02-25T02:09:08.875Z,11.30
2019-02-25T02:11:36.452Z,11.30
2019-02-25T02:14:04.332Z,11.30
2019-02-25T02:16:32.789Z,11.30
2019-02-25T02:19:00.291Z,11.20
2019-02-25T02:21:28.306Z,11.20
2019-02-25T02:23:55.843Z,11.20
2019-02-25T02:26:23.765Z,11.20
2019-02-25T02:28:51.600Z,11.20
2019-02-25T02:31:20.069Z,11.20
2019-02-25T02:33:47.954Z,11.20
2019-02-25T02:36:15.769Z,11.60
2019-02-25T02:38:43.350Z,11.20
2019-02-25T02:41:11.289Z,11.20
2019-02-25T02:43:39.048Z,11.20
2019-02-25T02:46:25.210Z,11.20
2019-02-25T02:48:59.975Z,11.20
2019-02-25T02:51:27.576Z,11.30
2019-02-25T02:53:56.332Z,11.30
2019-02-25T02:56:24.088Z,11.30
2019-02-25T02:58:51.843Z,11.30
2019-02-25T03:01:19.998Z,11.40
2019-02-25T03:03:48.030Z,11.40
2019-02-25T03:06:15.971Z,11.40
2019-02-25T03:08:43.556Z,11.40
2019-02-25T03:11:10.994Z,11.40
2019-02-25T03:13:38.760Z,11.40
2019-02-25T03:16:06.202Z,11.40
2019-02-25T03:18:33.829Z,11.40
2019-02-25T03:21:01.367Z,11.40
2019-02-25T03:23:28.643Z,11.40
2019-02-25T03:25:56.704Z,11.40
2019-02-25T03:28:24.613Z,11.50
2019-02-25T03:30:52.764Z,11.50
2019-02-25T03:33:20.639Z,11.50
2019-02-25T03:35:48.275Z,11.40
2019-02-25T03:38:15.867Z,11.40
2019-02-25T03:40:44.212Z,11.50
2019-02-25T03:43:11.812Z,11.50
2019-02-25T03:45:40.677Z,11.50
2019-02-25T03:48:08.338Z,11.50
2019-02-25T03:50:36.162Z,11.50
2019-02-25T03:53:04.107Z,11.50
2019-02-25T03:55:31.991Z,11.50
2019-02-25T03:58:00.054Z,11.50
2019-02-25T04:00:27.394Z,11.50
2019-02-25T04:02:56.860Z,11.50
2019-02-25T04:05:24.647Z,11.40
2019-02-25T04:07:52.585Z,11.40
2019-02-25T04:10:20.011Z,11.40
2019-02-25T04:12:48.067Z,11.40
2019-02-25T04:15:19.161Z,11.40
2019-02-25T04:17:46.596Z,11.40
2019-02-25T04:20:14.726Z,11.40
2019-02-25T04:22:42.086Z,11.40
2019-02-25T04:25:10.056Z,11.40
2019-02-25T04:27:38.569Z,11.30
2019-02-25T04:30:08.285Z,11.30
2019-02-25T04:32:36.429Z,11.30
2019-02-25T04:35:05.088Z,11.30
2019-02-25T04:37:33.062Z,11.20
2019-02-25T04:40:01.113Z,11.30
2019-02-25T04:42:28.725Z,11.30
2019-02-25T04:44:56.681Z,11.20
2019-02-25T04:47:24.480Z,11.20
2019-02-25T04:49:52.020Z,11.20
2019-02-25T04:52:20.270Z,11.20
2019-02-25T04:54:48.231Z,11.20
2019-02-25T04:57:16.296Z,11.20
2019-02-25T04:59:44.047Z,11.20
2019-02-25T05:02:11.601Z,11.10
2019-02-25T05:04:39.222Z,11.10
2019-02-25T05:07:07.253Z,11.10
2019-02-25T05:09:35.143Z,11.10
2019-02-25T05:12:02.735Z,11.10
2019-02-25T05:14:30.838Z,11.10
2019-02-25T05:16:58.628Z,11.10
2019-02-25T05:19:26.662Z,11.00
2019-02-25T05:21:54.629Z,11.00
2019-02-25T05:24:22.128Z,11.00
2019-02-25T05:26:49.568Z,11.00
2019-02-25T05:29:17.546Z,11.00
2019-02-25T05:31:45.303Z,11.00
2019-02-25T05:34:12.778Z,11.00
2019-02-25T05:36:40.293Z,11.00
2019-02-25T05:39:07.990Z,10.90
2019-02-25T05:41:35.992Z,10.90
2019-02-25T05:44:03.828Z,10.90
2019-02-25T05:46:31.857Z,10.90
2019-02-25T05:48:59.480Z,10.90
2019-02-25T05:51:27.064Z,10.90
2019-02-25T05:53:54.851Z,10.90
2019-02-25T05:56:22.527Z,10.90
2019-02-25T05:58:50.437Z,10.80
2019-02-25T06:01:18.605Z,10.80
2019-02-25T06:03:46.879Z,10.80
2019-02-25T06:06:15.244Z,10.70
2019-02-25T06:08:43.150Z,10.80
2019-02-25T06:11:11.199Z,10.80
2019-02-25T06:13:39.794Z,10.70
2019-02-25T06:16:07.643Z,10.70
2019-02-25T06:18:35.547Z,10.70
2019-02-25T06:21:03.928Z,10.70
2019-02-25T06:23:31.722Z,10.70
2019-02-25T06:25:59.449Z,10.70
2019-02-25T06:28:27.915Z,10.70
2019-02-25T06:30:55.519Z,10.70
2019-02-25T06:33:23.604Z,10.70
2019-02-25T06:35:51.691Z,10.70
2019-02-25T06:38:19.679Z,10.70
2019-02-25T06:40:47.426Z,10.70
2019-02-25T06:43:15.494Z,10.70
2019-02-25T06:45:43.644Z,10.60
2019-02-25T06:48:11.787Z,10.60
2019-02-25T06:50:39.926Z,10.60
2019-02-25T06:53:08.524Z,10.60
2019-02-25T06:55:37.175Z,10.50
2019-02-25T06:58:05.766Z,10.50
2019-02-25T07:00:33.808Z,10.50
2019-02-25T07:03:01.695Z,10.50
2019-02-25T07:05:46.769Z,10.50
2019-02-25T07:08:37.363Z,10.50
2019-02-25T07:11:13.429Z,10.50
2019-02-25T07:14:09.741Z,10.50
2019-02-25T07:17:06.625Z,10.50
2019-02-25T07:19:47.586Z,10.50
2019-02-25T07:22:30.304Z,10.50
2019-02-25T07:25:29.672Z,10.50
2019-02-25T07:28:15.744Z,10.50
2019-02-25T07:31:04.860Z,10.40
2019-02-25T07:33:49.747Z,10.50
2019-02-25T07:36:36.199Z,10.50
2019-02-25T07:39:28.957Z,10.50
2019-02-25T07:42:16.402Z,10.50
2019-02-25T07:44:56.578Z,10.50
2019-02-25T07:47:47.695Z,10.50
2019-02-25T07:50:35.420Z,10.60
2019-02-25T07:53:26.417Z,10.60
2019-02-25T07:56:11.393Z,10.60
2019-02-25T07:58:59.930Z,10.70
2019-02-25T08:01:50.839Z,10.60
2019-02-25T08:04:49.907Z,10.70
2019-02-25T08:07:36.019Z,10.70
2019-02-25T08:10:33.342Z,10.70
2019-02-25T08:13:11.006Z,10.80
2019-02-25T08:15:58.623Z,10.80
2019-02-25T08:18:58.576Z,10.80
2019-02-25T08:21:35.506Z,10.80
2019-02-25T08:24:39.345Z,10.80
2019-02-25T08:27:42.421Z,10.90
2019-02-25T08:30:28.417Z,10.90
2019-02-25T08:33:14.398Z,10.90
2019-02-25T08:36:39.479Z,10.90
2019-02-25T08:39:22.250Z,10.90
2019-02-25T08:42:07.443Z,11.00
2019-02-25T08:44:47.717Z,11.00
2019-02-25T08:47:41.579Z,10.80
2019-02-25T08:50:11.025Z,11.10
2019-02-25T08:52:39.006Z,11.10
2019-02-25T08:55:07.929Z,11.10
2019-02-25T08:57:36.362Z,11.40
2019-02-25T09:00:05.754Z,11.20
2019-02-25T09:02:36.140Z,11.20
2019-02-25T09:05:05.454Z,11.20
2019-02-25T09:07:33.289Z,11.20
2019-02-25T09:10:01.308Z,11.30
2019-02-25T09:12:28.704Z,11.30
2019-02-25T09:14:56.390Z,11.30
2019-02-25T09:17:24.208Z,11.40
2019-02-25T09:19:51.914Z,11.40
2019-02-25T09:22:19.916Z,11.40
2019-02-25T09:24:48.831Z,11.40
2019-02-25T09:27:16.999Z,11.50
2019-02-25T09:29:45.084Z,11.50
2019-02-25T09:32:12.825Z,11.50
2019-02-25T09:34:40.484Z,11.50
2019-02-25T09:37:08.230Z,11.60
2019-02-25T09:39:36.142Z,11.60
2019-02-25T09:42:04.119Z,11.60
2019-02-25T09:44:31.746Z,11.70
2019-02-25T09:46:59.314Z,11.70
2019-02-25T09:49:27.459Z,11.70
2019-02-25T09:51:55.081Z,11.70
2019-02-25T09:54:22.612Z,11.80
2019-02-25T09:56:50.519Z,11.80
2019-02-25T09:59:18.576Z,11.80
2019-02-25T10:01:47.048Z,11.80
2019-02-25T10:04:14.699Z,11.80
2019-02-25T10:06:42.275Z,11.90
2019-02-25T10:09:10.434Z,11.90
2019-02-25T10:11:37.853Z,11.90
2019-02-25T10:14:08.461Z,11.90
2019-02-25T10:16:35.991Z,12.00
2019-02-25T10:19:03.672Z,12.00
2019-02-25T10:21:31.562Z,12.00
2019-02-25T10:23:59.498Z,12.00
2019-02-25T10:26:27.117Z,12.00
2019-02-25T10:28:54.875Z,12.10
2019-02-25T10:31:22.480Z,12.10
2019-02-25T10:33:50.830Z,12.10
2019-02-25T10:36:18.641Z,12.10
2019-02-25T10:38:46.802Z,12.20
2019-02-25T10:41:17.146Z,12.20
2019-02-25T10:43:45.005Z,12.30
2019-02-25T10:46:13.867Z,12.20
2019-02-25T10:48:42.255Z,12.30
2019-02-25T10:51:11.549Z,12.30
2019-02-25T10:53:39.431Z,12.40
2019-02-25T10:56:25.792Z,12.30
2019-02-25T10:58:53.289Z,12.30
2019-02-25T11:01:22.341Z,12.40
2019-02-25T11:03:52.584Z,12.40
2019-02-25T11:06:20.774Z,12.40
2019-02-25T11:08:54.259Z,12.40
2019-02-25T11:11:27.190Z,12.50
2019-02-25T11:13:54.868Z,12.50
2019-02-25T11:16:22.990Z,12.60
2019-02-25T11:18:52.765Z,12.60
2019-02-25T11:21:21.229Z,12.60
2019-02-25T11:23:51.154Z,12.60
2019-02-25T11:26:19.590Z,12.70
2019-02-25T11:28:47.679Z,12.70
2019-02-25T11:31:18.172Z,12.70
2019-02-25T11:33:45.244Z,12.80
2019-02-25T11:36:15.397Z,12.80
2019-02-25T11:38:43.422Z,12.80
2019-02-25T11:41:11.813Z,12.90
2019-02-25T11:43:40.071Z,12.90
2019-02-25T11:46:08.453Z,13.00
2019-02-25T11:48:42.036Z,13.00
2019-02-25T11:51:09.711Z,13.10
2019-02-25T11:53:40.956Z,13.10
2019-02-25T11:56:08.553Z,13.20
2019-02-25T11:58:36.588Z,13.20
2019-02-25T12:01:04.641Z,13.30
2019-02-25T12:03:32.704Z,13.30
2019-02-25T12:06:00.780Z,13.40
2019-02-25T12:08:28.595Z,13.40
2019-02-25T12:10:57.242Z,13.50
2019-02-25T12:13:25.322Z,13.50
2019-02-25T12:15:52.978Z,13.60
2019-02-25T12:18:20.820Z,13.60
2019-02-25T12:20:48.423Z,13.70
2019-02-25T12:23:16.323Z,13.70
2019-02-25T12:25:43.970Z,13.70
2019-02-25T12:28:11.638Z,13.80
2019-02-25T12:30:39.531Z,13.80
2019-02-25T12:33:07.133Z,13.90
2019-02-25T12:35:35.338Z,14.00
2019-02-25T12:38:03.267Z,14.00
2019-02-25T12:40:32.279Z,14.10
2019-02-25T12:43:00.237Z,14.10
2019-02-25T12:45:28.325Z,14.10
2019-02-25T12:47:56.424Z,14.20
2019-02-25T12:50:24.362Z,14.20
2019-02-25T12:52:52.103Z,14.30
2019-02-25T12:55:19.910Z,14.30
2019-02-25T12:57:47.375Z,14.40
2019-02-25T13:00:15.287Z,14.50
2019-02-25T13:02:44.338Z,14.40
2019-02-25T13:05:13.718Z,14.50
2019-02-25T13:07:42.071Z,14.50
2019-02-25T13:10:11.467Z,14.60
2019-02-25T13:12:40.116Z,14.60
2019-02-25T13:15:13.315Z,14.60
2019-02-25T13:17:44.690Z,14.70
2019-02-25T13:20:12.564Z,14.70
2019-02-25T13:22:40.632Z,14.70
2019-02-25T13:25:10.598Z,14.80
2019-02-25T13:27:43.481Z,14.80
2019-02-25T13:30:13.288Z,14.80
2019-02-25T13:32:41.235Z,14.90
2019-02-25T13:35:09.195Z,15.00
2019-02-25T13:37:37.288Z,15.00
2019-02-25T13:40:06.249Z,15.00
2019-02-25T13:42:35.241Z,15.10
2019-02-25T13:45:03.089Z,15.10
2019-02-25T13:47:31.193Z,15.10
2019-02-25T13:50:00.316Z,15.20
2019-02-25T13:52:28.661Z,15.20
2019-02-25T13:54:56.248Z,15.30
2019-02-25T13:57:24.288Z,15.30
2019-02-25T13:59:53.046Z,15.40
2019-02-25T14:02:20.671Z,15.40
2019-02-25T14:04:49.673Z,15.50
2019-02-25T14:07:18.175Z,15.50
2019-02-25T14:09:46.183Z,15.50
2019-02-25T14:12:15.072Z,15.60
2019-02-25T14:14:43.104Z,15.60
2019-02-25T14:17:10.815Z,15.70
2019-02-25T14:19:38.594Z,15.70
2019-02-25T14:22:08.180Z,15.70
2019-02-25T14:24:35.790Z,15.80
2019-02-25T14:27:03.511Z,15.80
2019-02-25T14:29:31.351Z,15.80
2019-02-25T14:31:59.219Z,15.90
2019-02-25T14:34:27.921Z,15.90
2019-02-25T14:36:57.228Z,16.00
2019-02-25T14:39:28.511Z,16.00
2019-02-25T14:41:58.951Z,16.00
2019-02-25T14:44:29.810Z,16.10
2019-02-25T14:46:56.607Z,16.10
2019-02-25T14:49:28.218Z,16.20
2019-02-25T14:51:57.533Z,16.20
2019-02-25T14:54:26.736Z,16.20
2019-02-25T14:56:59.889Z,16.30
2019-02-25T14:59:27.874Z,16.30
2019-02-25T15:01:56.986Z,16.30
2019-02-25T15:04:25.758Z,16.30
2019-02-25T15:06:53.290Z,16.40
2019-02-25T15:09:21.191Z,16.40
2019-02-25T15:11:51.259Z,16.40
2019-02-25T15:14:21.524Z,16.40
2019-02-25T15:16:52.909Z,16.40
2019-02-25T15:19:22.658Z,16.50
2019-02-25T15:21:52.094Z,16.50
2019-02-25T15:24:23.070Z,16.50
2019-02-25T15:27:01.635Z,16.50
2019-02-25T15:29:31.110Z,16.50
2019-02-25T15:32:06.204Z,16.60
2019-02-25T15:34:37.566Z,16.50
2019-02-25T15:37:10.096Z,16.60
2019-02-25T15:39:42.598Z,16.60
2019-02-25T15:42:11.212Z,16.60
2019-02-25T15:44:44.529Z,16.60
2019-02-25T15:47:16.928Z,16.60
2019-02-25T15:49:52.026Z,16.70
2019-02-25T15:52:21.051Z,16.70
2019-02-25T15:54:49.447Z,16.70
2019-02-25T15:57:17.634Z,16.70
2019-02-25T15:59:45.606Z,16.70
2019-02-25T16:02:15.002Z,16.70
2019-02-25T16:04:43.312Z,16.70
2019-02-25T16:07:11.483Z,16.70
2019-02-25T16:09:39.596Z,16.70
2019-02-25T16:12:07.853Z,16.70
2019-02-25T16:14:36.807Z,16.70
2019-02-25T16:17:06.030Z,16.70
2019-02-25T16:19:41.361Z,16.70
2019-02-25T16:22:07.375Z,16.70
2019-02-25T16:24:36.146Z,16.70
2019-02-25T16:27:04.592Z,16.70
2019-02-25T16:29:32.717Z,16.70
2019-02-25T16:32:01.943Z,16.60
2019-02-25T16:34:29.783Z,16.60
2019-02-25T16:36:58.235Z,16.60
2019-02-25T16:39:27.636Z,16.50
2019-02-25T16:41:55.501Z,16.50
2019-02-25T16:44:26.592Z,16.40
2019-02-25T16:46:54.192Z,16.60
2019-02-25T16:49:21.630Z,16.40
2019-02-25T16:51:51.459Z,16.30
2019-02-25T16:54:22.794Z,16.30
2019-02-25T16:56:52.964Z,16.20
2019-02-25T16:59:26.447Z,16.20
2019-02-25T17:02:00.021Z,16.20
2019-02-25T17:04:31.873Z,16.10
2019-02-25T17:07:00.525Z,16.10
2019-02-25T17:09:29.711Z,16.10
2019-02-25T17:11:58.149Z,16.10
2019-02-25T17:14:27.026Z,16.00
2019-02-25T17:16:56.539Z,16.00
2019-02-25T17:19:24.763Z,16.00
2019-02-25T17:21:52.606Z,16.00
2019-02-25T17:24:23.800Z,15.90
2019-02-25T17:26:50.075Z,15.90
2019-02-25T17:29:18.259Z,15.90
2019-02-25T17:31:45.917Z,15.80
2019-02-25T17:34:16.500Z,15.80
2019-02-25T17:36:45.592Z,15.80
2019-02-25T17:39:15.060Z,15.70
2019-02-25T17:41:44.785Z,15.80
2019-02-25T17:44:12.788Z,15.70
2019-02-25T17:46:41.790Z,15.70
2019-02-25T17:49:12.266Z,15.70
2019-02-25T17:51:40.689Z,15.60
2019-02-25T17:54:10.223Z,15.60
2019-02-25T17:56:40.504Z,15.60
2019-02-25T17:59:09.741Z,15.60
2019-02-25T18:01:37.668Z,15.60
2019-02-25T18:04:06.604Z,15.60
2019-02-25T18:06:36.306Z,15.50
2019-02-25T18:09:06.993Z,15.50
2019-02-25T18:11:34.649Z,15.50
2019-02-25T18:14:03.499Z,15.50
2019-02-25T18:16:33.201Z,15.50
2019-02-25T18:19:01.532Z,15.40
2019-02-25T18:21:29.276Z,15.40
2019-02-25T18:23:57.485Z,15.40
2019-02-25T18:26:25.297Z,15.40
2019-02-25T18:28:53.017Z,15.30
2019-02-25T18:31:21.387Z,15.30
2019-02-25T18:33:51.135Z,15.30
2019-02-25T18:36:21.563Z,15.30
2019-02-25T18:38:50.673Z,15.20
2019-02-25T18:41:21.098Z,15.20
2019-02-25T18:43:49.402Z,15.40
2019-02-25T18:46:19.154Z,15.20
2019-02-25T18:48:49.204Z,15.20
2019-02-25T18:51:18.295Z,15.10
2019-02-25T18:53:46.104Z,15.10
2019-02-25T18:56:14.631Z,15.10
2019-02-25T18:58:43.593Z,15.10
2019-02-25T19:01:13.390Z,15.00
2019-02-25T19:03:42.553Z,15.00
2019-02-25T19:06:10.850Z,15.00
2019-02-25T19:08:38.646Z,14.90
2019-02-25T19:11:06.817Z,14.90
2019-02-25T19:13:34.714Z,14.90
2019-02-25T19:16:03.106Z,14.90
2019-02-25T19:18:32.084Z,14.90
2019-02-25T19:21:04.237Z,15.10
2019-02-25T19:23:34.943Z,14.80
2019-02-25T19:26:01.273Z,14.80
2019-02-25T19:28:30.335Z,14.80
2019-02-25T19:30:57.973Z,14.80
2019-02-25T19:33:26.467Z,14.80
2019-02-25T19:35:58.107Z,14.80
2019-02-25T19:38:24.735Z,14.70
2019-02-25T19:40:53.567Z,14.70
2019-02-25T19:43:23.161Z,14.70
2019-02-25T19:45:52.143Z,14.70
2019-02-25T19:48:22.656Z,14.70
2019-02-25T19:50:51.559Z,14.60
2019-02-25T19:53:20.980Z,14.60
2019-02-25T19:55:51.076Z,14.60
2019-02-25T19:58:19.208Z,14.60
2019-02-25T20:00:50.637Z,14.50
2019-02-25T20:03:17.248Z,14.60
2019-02-25T20:05:46.335Z,14.50
2019-02-25T20:08:14.937Z,14.50
2019-02-25T20:10:44.885Z,14.50
2019-02-25T20:13:13.039Z,14.40
2019-02-25T20:15:42.388Z,14.40
2019-02-25T20:18:11.805Z,14.40
2019-02-25T20:20:41.818Z,14.40
2019-02-25T20:23:11.139Z,14.30
2019-02-25T20:25:42.434Z,14.40
2019-02-25T20:28:13.639Z,14.30
2019-02-25T20:30:43.359Z,14.30
2019-02-25T20:33:12.158Z,14.30
2019-02-25T20:35:40.234Z,14.30
2019-02-25T20:38:08.890Z,14.30
2019-02-25T20:40:36.951Z,14.30
2019-02-25T20:43:05.221Z,14.20
2019-02-25T20:45:35.075Z,14.20
2019-02-25T20:48:02.865Z,14.20
2019-02-25T20:50:30.822Z,14.20
2019-02-25T20:53:02.806Z,14.20
2019-02-25T20:55:29.357Z,14.20
2019-02-25T20:57:57.326Z,14.10
2019-02-25T21:00:25.198Z,14.10
2019-02-25T21:02:52.879Z,14.10
2019-02-25T21:05:22.811Z,14.10
2019-02-25T21:07:52.928Z,14.10
2019-02-25T21:10:22.535Z,14.10
2019-02-25T21:12:52.431Z,14.10
2019-02-25T21:15:20.421Z,14.10
2019-02-25T21:17:48.658Z,14.00
2019-02-25T21:20:16.216Z,14.00
2019-02-25T21:22:47.082Z,14.00
2019-02-25T21:25:14.854Z,14.00
2019-02-25T21:27:42.730Z,13.90
2019-02-25T21:30:13.069Z,13.90
2019-02-25T21:32:43.199Z,13.90
2019-02-25T21:35:12.047Z,13.80
2019-02-25T21:37:43.378Z,13.90
2019-02-25T21:40:12.299Z,13.80
2019-02-25T21:42:41.688Z,13.80
2019-02-25T21:45:10.839Z,13.80
2019-02-25T21:47:39.049Z,13.80
2019-02-25T21:50:11.456Z,13.70
2019-02-25T21:52:41.187Z,13.70
2019-02-25T21:55:09.755Z,13.70
2019-02-25T21:57:43.126Z,13.70
2019-02-25T22:00:13.456Z,13.70
2019-02-25T22:02:43.526Z,13.70
2019-02-25T22:05:12.259Z,13.60
2019-02-25T22:07:40.716Z,13.60
2019-02-25T22:10:09.360Z,13.60
2019-02-25T22:12:37.719Z,13.50
2019-02-25T22:15:08.033Z,13.50
2019-02-25T22:17:37.889Z,13.50
2019-02-25T22:20:07.497Z,13.50
2019-02-25T22:22:37.441Z,13.50
2019-02-25T22:25:08.429Z,13.40
2019-02-25T22:27:37.383Z,13.40
2019-02-25T22:30:07.412Z,13.40
2019-02-25T22:32:36.568Z,13.40
2019-02-25T22:35:07.585Z,13.40
2019-02-25T22:37:36.452Z,13.30
2019-02-25T22:40:05.937Z,13.40
2019-02-25T22:42:35.538Z,13.30
2019-02-25T22:45:04.429Z,13.30
2019-02-25T22:47:33.070Z,13.20
2019-02-25T22:50:01.109Z,13.20
2019-02-25T22:52:30.893Z,13.20
2019-02-25T22:54:58.317Z,13.20
2019-02-25T22:57:27.981Z,13.10
2019-02-25T22:59:56.087Z,12.80
2019-02-25T23:02:26.449Z,13.10
2019-02-25T23:04:54.178Z,13.00
2019-02-25T23:07:24.622Z,13.00
2019-02-25T23:09:54.315Z,13.00
2019-02-25T23:12:24.132Z,12.90
2019-02-25T23:14:53.824Z,12.90
2019-02-25T23:17:22.381Z,12.90
2019-02-25T23:19:50.556Z,12.80
2019-02-25T23:22:19.150Z,12.80
2019-02-25T23:24:46.663Z,12.80
2019-02-25T23:27:15.703Z,12.80
2019-02-25T23:29:43.047Z,12.70
2019-02-25T23:32:11.305Z,12.70
2019-02-25T23:34:42.605Z,12.70
2019-02-25T23:37:12.947Z,12.60
2019-02-25T23:39:38.427Z,12.60
2019-02-25T23:42:09.156Z,12.60
2019-02-25T23:44:38.212Z,12.60
2019-02-25T23:47:07.145Z,12.60
2019-02-25T23:49:36.532Z,12.50
2019-02-25T23:52:07.231Z,12.50
2019-02-25T23:54:35.051Z,12.50
2019-02-25T23:57:02.886Z,12.50
2019-02-25T23:59:30.949Z,12.50
